createdAt,value
2023-11-09T00:03:09.359Z,100.00
2023-11-09T00:08:11.803Z,100.00
2023-11-09T00:13:13.677Z,100.00
2023-11-09T00:18:22.967Z,100.00
2023-11-09T00:23:25.139Z,100.00
2023-11-09T00:28:27.045Z,100.00
2023-11-09T00:33:29.055Z,100.00
2023-11-09T00:38:30.903Z,100.00
2023-11-09T00:43:34.076Z,100.00
2023-11-09T00:48:35.966Z,100.00
2023-11-09T00:53:38.551Z,100.00
2023-11-09T00:58:40.434Z,100.00
2023-11-09T01:03:42.361Z,100.00
2023-11-09T01:08:44.205Z,100.00
2023-11-09T01:13:46.019Z,100.00
2023-11-09T01:18:51.547Z,100.00
2023-11-09T01:23:53.433Z,100.00
2023-11-09T01:28:55.356Z,100.00
2023-11-09T01:34:04.734Z,100.00
2023-11-09T01:39:13.789Z,100.00
2023-11-09T01:44:16.341Z,100.00
2023-11-09T01:49:18.353Z,100.00
2023-11-09T01:54:20.599Z,100.00
2023-11-09T01:59:23.007Z,100.00
2023-11-09T02:04:26.174Z,100.00
2023-11-09T02:09:28.709Z,100.00
2023-11-09T02:14:30.863Z,100.00
2023-11-09T02:19:33.006Z,100.00
2023-11-09T02:24:35.902Z,100.00
2023-11-09T02:29:40.603Z,100.00
2023-11-09T02:34:42.460Z,100.00
2023-11-09T02:39:44.329Z,100.00
2023-11-09T02:44:46.172Z,100.00
2023-11-09T02:49:48.028Z,100.00
2023-11-09T02:54:49.870Z,100.00
2023-11-09T02:59:51.687Z,100.00
2023-11-09T03:04:53.641Z,100.00
2023-11-09T03:09:56.215Z,100.00
2023-11-09T03:14:58.086Z,100.00
2023-11-09T03:19:59.934Z,100.00
2023-11-09T03:25:02.051Z,100.00
2023-11-09T03:30:04.268Z,100.00
2023-11-09T03:35:06.276Z,100.00
2023-11-09T03:40:09.578Z,100.00
2023-11-09T03:45:12.038Z,100.00
2023-11-09T03:50:14.092Z,100.00
2023-11-09T03:55:16.310Z,100.00
2023-11-09T04:00:19.859Z,100.00
2023-11-09T04:05:23.852Z,100.00
2023-11-09T04:10:25.978Z,100.00
2023-11-09T04:15:27.804Z,100.00
2023-11-09T04:20:29.760Z,100.00
2023-11-09T04:25:31.678Z,100.00
2023-11-09T04:30:33.617Z,100.00
2023-11-09T04:35:36.227Z,100.00
2023-11-09T04:40:38.065Z,100.00
2023-11-09T04:45:43.712Z,100.00
2023-11-09T04:50:50.209Z,100.00
2023-11-09T04:55:55.141Z,100.00
2023-11-09T05:01:15.679Z,100.00
2023-11-09T05:06:35.917Z,100.00
2023-11-09T05:11:38.993Z,100.00
2023-11-09T05:16:40.863Z,100.00
2023-11-09T05:21:42.845Z,100.00
2023-11-09T05:26:44.852Z,100.00
2023-11-09T05:31:46.727Z,100.00
2023-11-09T05:36:48.564Z,100.00
2023-11-09T05:41:52.810Z,100.00
2023-11-09T05:46:56.825Z,100.00
2023-11-09T05:51:58.714Z,100.00
2023-11-09T05:57:00.579Z,100.00
2023-11-09T06:02:03.184Z,100.00
2023-11-09T06:07:05.417Z,100.00
2023-11-09T06:12:09.444Z,100.00
2023-11-09T06:17:12.250Z,100.00
2023-11-09T06:22:14.027Z,100.00
2023-11-09T06:27:18.354Z,100.00
2023-11-09T06:32:20.799Z,100.00
2023-11-09T06:37:23.910Z,100.00
2023-11-09T06:42:26.881Z,100.00
2023-11-09T06:47:28.554Z,100.00
2023-11-09T06:52:30.257Z,100.00
2023-11-09T06:57:31.974Z,100.00
2023-11-09T07:02:34.330Z,100.00
2023-11-09T07:07:36.170Z,100.00
2023-11-09T07:12:41.826Z,100.00
2023-11-09T07:17:44.706Z,100.00
2023-11-09T07:22:49.364Z,100.00
2023-11-09T07:27:51.053Z,100.00
2023-11-09T07:32:52.772Z,100.00
2023-11-09T07:37:54.748Z,100.00
2023-11-09T07:42:58.506Z,100.00
2023-11-09T07:48:00.447Z,100.00
2023-11-09T07:53:02.281Z,100.00
2023-11-09T07:58:05.088Z,100.00
2023-11-09T08:03:07.392Z,100.00
2023-11-09T08:08:11.438Z,100.00
2023-11-09T08:13:13.361Z,100.00
2023-11-09T08:18:16.066Z,100.00
2023-11-09T08:23:17.817Z,99.85
2023-11-09T08:28:19.545Z,100.00
2023-11-09T08:33:24.696Z,97.87
2023-11-09T08:38:26.401Z,89.70
2023-11-09T08:43:28.239Z,87.67
2023-11-09T08:48:31.092Z,91.93
2023-11-09T08:53:32.856Z,97.49
2023-11-09T08:58:39.670Z,90.54
2023-11-09T09:03:42.471Z,89.27
2023-11-09T09:08:47.745Z,89.26
2023-11-09T09:13:50.034Z,90.28
2023-11-09T09:18:53.182Z,89.34
2023-11-09T09:23:54.854Z,83.57
2023-11-09T09:28:57.671Z,82.53
2023-11-09T09:34:09.382Z,78.31
2023-11-09T09:39:15.387Z,75.30
2023-11-09T09:44:21.019Z,74.61
2023-11-09T09:49:23.729Z,78.85
2023-11-09T09:54:25.979Z,72.06
2023-11-09T09:59:28.804Z,74.11
2023-11-09T10:04:30.956Z,69.55
2023-11-09T10:09:33.112Z,64.87
2023-11-09T10:14:35.831Z,67.25
2023-11-09T10:19:43.954Z,66.22
2023-11-09T10:24:46.602Z,63.97
2023-11-09T10:29:48.389Z,64.09
2023-11-09T10:34:53.159Z,64.81
2023-11-09T10:39:54.885Z,66.09
2023-11-09T10:44:58.681Z,69.92
2023-11-09T10:50:08.771Z,71.54
2023-11-09T10:55:17.187Z,70.98
2023-11-09T11:00:32.488Z,71.53
2023-11-09T11:05:41.465Z,71.04
2023-11-09T11:10:52.576Z,71.32
2023-11-09T11:16:21.578Z,72.76
2023-11-09T11:21:54.066Z,73.24
2023-11-09T11:27:05.938Z,74.56
2023-11-09T11:32:17.675Z,74.02
2023-11-09T11:37:32.900Z,77.73
2023-11-09T11:42:35.868Z,77.11
2023-11-09T11:47:37.843Z,79.45
2023-11-09T11:52:39.537Z,78.11
2023-11-09T11:58:05.744Z,81.89
2023-11-09T12:03:11.276Z,97.84
2023-11-09T12:08:14.121Z,88.05
2023-11-09T12:13:16.094Z,90.49
2023-11-09T12:18:18.473Z,96.15
2023-11-09T12:23:20.345Z,94.18
2023-11-09T12:28:23.794Z,100.00
2023-11-09T12:33:25.823Z,100.00
2023-11-09T12:38:28.201Z,100.00
2023-11-09T12:43:48.288Z,100.00
2023-11-09T12:48:53.542Z,100.00
2023-11-09T12:53:58.815Z,100.00
2023-11-09T12:59:01.264Z,100.00
2023-11-09T13:04:03.455Z,100.00
2023-11-09T13:09:31.372Z,100.00
2023-11-09T13:14:38.332Z,100.00
2023-11-09T13:19:46.411Z,100.00
2023-11-09T13:24:54.807Z,100.00
2023-11-09T13:29:57.370Z,100.00
2023-11-09T13:35:17.881Z,100.00
2023-11-09T13:40:22.631Z,100.00
2023-11-09T13:45:35.612Z,100.00
2023-11-09T13:50:38.763Z,100.00
2023-11-09T13:56:00.503Z,100.00
2023-11-09T14:01:02.405Z,100.00
2023-11-09T14:06:08.652Z,100.00
2023-11-09T14:11:12.351Z,100.00
2023-11-09T14:16:21.247Z,100.00
2023-11-09T14:21:33.959Z,100.00
2023-11-09T14:26:37.491Z,100.00
2023-11-09T14:31:40.238Z,100.00
2023-11-09T14:36:58.731Z,100.00
2023-11-09T14:42:08.560Z,100.00
2023-11-09T14:47:12.109Z,100.00
2023-11-09T14:52:22.330Z,100.00
2023-11-09T14:57:24.315Z,100.00
2023-11-09T15:02:26.262Z,100.00
2023-11-09T15:07:28.199Z,100.00
2023-11-09T15:12:34.936Z,100.00
2023-11-09T15:17:40.138Z,100.00
2023-11-09T15:22:42.162Z,100.00
2023-11-09T15:27:44.641Z,100.00
2023-11-09T15:32:46.536Z,100.00
2023-11-09T15:37:50.499Z,100.00
2023-11-09T15:42:55.892Z,100.00
2023-11-09T15:47:58.074Z,100.00
2023-11-09T15:53:00.059Z,100.00
2023-11-09T15:58:05.212Z,100.00
2023-11-09T16:03:07.644Z,100.00
2023-11-09T16:08:11.794Z,100.00
2023-11-09T16:13:13.616Z,100.00
2023-11-09T16:18:15.693Z,100.00
2023-11-09T16:23:18.756Z,100.00
2023-11-09T16:28:24.172Z,100.00
2023-11-09T16:33:26.148Z,100.00
2023-11-09T16:38:28.078Z,100.00
2023-11-09T16:43:30.125Z,100.00
2023-11-09T16:48:34.830Z,100.00
2023-11-09T16:53:36.915Z,100.00
2023-11-09T16:58:38.842Z,100.00
2023-11-09T17:03:41.108Z,100.00
2023-11-09T17:08:43.007Z,100.00
2023-11-09T17:13:44.868Z,100.00
2023-11-09T17:18:47.247Z,100.00
2023-11-09T17:23:49.108Z,100.00
2023-11-09T17:28:50.999Z,100.00
2023-11-09T17:33:53.031Z,100.00
2023-11-09T17:38:55.088Z,100.00
2023-11-09T17:43:56.972Z,100.00
2023-11-09T17:48:58.983Z,100.00
2023-11-09T17:54:01.480Z,100.00
2023-11-09T17:59:03.905Z,100.00
2023-11-09T18:04:11.070Z,100.00
2023-11-09T18:09:16.230Z,100.00
2023-11-09T18:14:18.181Z,100.00
2023-11-09T18:19:20.163Z,100.00
2023-11-09T18:24:23.467Z,100.00
2023-11-09T18:29:28.008Z,100.00
2023-11-09T18:34:30.420Z,100.00
2023-11-09T18:39:32.648Z,100.00
2023-11-09T18:44:34.560Z,100.00
2023-11-09T18:54:41.168Z,100.00
2023-11-09T18:59:43.546Z,100.00
2023-11-09T19:04:46.467Z,100.00
2023-11-09T19:09:50.102Z,100.00
2023-11-09T19:14:53.855Z,100.00
2023-11-09T19:19:55.771Z,100.00
2023-11-09T19:24:57.689Z,100.00
2023-11-09T19:29:59.778Z,100.00
2023-11-09T19:35:01.797Z,100.00
2023-11-09T19:40:04.652Z,100.00
2023-11-09T19:45:07.188Z,100.00
2023-11-09T19:50:12.194Z,100.00
2023-11-09T19:55:14.147Z,100.00
2023-11-09T20:00:17.640Z,100.00
2023-11-09T20:05:19.753Z,100.00
2023-11-09T20:10:21.814Z,100.00
2023-11-09T20:15:28.374Z,100.00
2023-11-09T20:20:30.872Z,100.00
2023-11-09T20:25:32.923Z,100.00
2023-11-09T20:30:34.924Z,100.00
2023-11-09T20:35:37.468Z,100.00
2023-11-09T20:40:39.848Z,100.00
2023-11-09T20:45:42.782Z,100.00
2023-11-09T20:50:44.713Z,100.00
2023-11-09T20:55:46.597Z,100.00
2023-11-09T21:00:49.446Z,100.00
2023-11-09T21:05:51.325Z,100.00
2023-11-09T21:10:53.203Z,100.00
2023-11-09T21:15:55.049Z,100.00
2023-11-09T21:20:56.901Z,100.00
2023-11-09T21:25:59.368Z,100.00
2023-11-09T21:31:01.199Z,100.00
2023-11-09T21:36:03.519Z,100.00
2023-11-09T21:41:05.589Z,100.00
2023-11-09T21:46:09.664Z,100.00
2023-11-09T21:51:11.721Z,100.00
2023-11-09T21:56:13.621Z,100.00
2023-11-09T22:01:15.596Z,100.00
2023-11-09T22:06:17.526Z,100.00
2023-11-09T22:11:19.678Z,100.00
2023-11-09T22:16:21.936Z,100.00
2023-11-09T22:21:25.723Z,100.00
2023-11-09T22:26:27.635Z,100.00
2023-11-09T22:31:29.494Z,100.00
2023-11-09T22:36:31.342Z,100.00
2023-11-09T22:41:33.233Z,100.00
2023-11-09T22:46:42.412Z,100.00
2023-11-09T22:51:44.741Z,100.00
2023-11-09T22:56:46.741Z,100.00
2023-11-09T23:01:48.731Z,100.00
2023-11-09T23:06:50.671Z,100.00
2023-11-09T23:11:52.969Z,100.00
2023-11-09T23:16:54.833Z,100.00
2023-11-09T23:21:58.651Z,100.00
2023-11-09T23:27:01.292Z,100.00
2023-11-09T23:32:04.535Z,100.00
2023-11-09T23:37:06.347Z,100.00
2023-11-09T23:42:08.251Z,100.00
2023-11-09T23:47:11.912Z,100.00
2023-11-09T23:52:16.070Z,100.00
2023-11-09T23:57:18.054Z,100.00
